Time;durP1;ratioP1;P1;durP2;ratioP2;P2;SDS_P1;SDS_P2;PMS_P1;PMS_P2;Temp;Humidity;BMP_temperature;BMP_pressure;BME280_temperature;BME280_humidity;BME280_pressure;Samples;Min_cycle;Max_cycle;Signal;HPM_P1;HPM_P2
2021/08/30 00:02:17;;;;;;;13.43;6.78;;;;;;;14.54;90.93;102338.41;4994922;28;20065;-75
2021/08/30 00:04:42;;;;;;;13.05;7.15;;;;;;;14.54;90.93;102338.41;4995115;28;20371;-75
2021/08/30 00:07:08;;;;;;;15.75;6.78;;;;;;;14.54;90.31;102341.09;4993872;28;20035;-74
2021/08/30 00:09:33;;;;;;;15.50;7.22;;;;;;;14.56;90.68;102343.66;4994130;28;20385;-75
2021/08/30 00:11:58;;;;;;;14.15;6.60;;;;;;;14.58;90.27;102344.34;4994595;28;20058;-74
2021/08/30 00:14:24;;;;;;;12.32;6.43;;;;;;;14.58;90.26;102345.19;4994041;28;20076;-74
2021/08/30 00:16:49;;;;;;;13.95;6.60;;;;;;;14.59;90.31;102344.22;4994621;28;20042;-73
2021/08/30 00:19:15;;;;;;;15.30;6.53;;;;;;;14.60;90.24;102342.38;4994831;28;20089;-74
2021/08/30 00:21:40;;;;;;;10.77;6.70;;;;;;;14.59;90.57;102344.22;4993956;28;20497;-74
2021/08/30 00:24:05;;;;;;;11.85;6.75;;;;;;;14.58;90.67;102345.19;4994486;28;20483;-74
2021/08/30 00:26:31;;;;;;;14.65;7.43;;;;;;;14.56;90.98;102347.16;4994333;28;20026;-75
2021/08/30 00:28:56;;;;;;;14.40;6.78;;;;;;;14.54;90.97;102348.25;4994342;28;20038;-75
2021/08/30 00:31:25;;;;;;;13.93;6.55;;;;;;;14.53;90.85;102349.25;4993949;28;20055;-75
2021/08/30 00:33:51;;;;;;;13.63;6.78;;;;;;;14.52;90.81;102342.19;4994218;28;20117;-74
2021/08/30 00:36:16;;;;;;;14.43;6.80;;;;;;;14.51;91.51;102349.38;4994302;28;20065;-74
2021/08/30 00:38:42;;;;;;;15.40;6.93;;;;;;;14.51;91.50;102345.84;4993510;28;20045;-74
2021/08/30 00:41:08;;;;;;;11.75;6.85;;;;;;;14.48;91.14;102346.97;4994098;28;20483;-74
2021/08/30 00:43:33;;;;;;;9.88;6.88;;;;;;;14.50;91.20;102357.56;4993801;28;20031;-74
2021/08/30 00:46:00;;;;;;;11.80;6.90;;;;;;;14.51;90.78;102360.09;4994366;28;20519;-74
2021/08/30 00:48:26;;;;;;;11.88;6.78;;;;;;;14.52;91.14;102355.59;4993697;28;20066;-74
2021/08/30 00:50:51;;;;;;;12.65;7.07;;;;;;;14.52;91.44;102360.94;4994442;28;20061;-74
2021/08/30 00:53:16;;;;;;;11.82;7.00;;;;;;;14.51;91.14;102359.22;4994467;28;20041;-74
2021/08/30 00:55:42;;;;;;;15.48;7.57;;;;;;;14.50;91.01;102347.69;4993044;28;20041;-74
2021/08/30 00:58:07;;;;;;;9.77;7.32;;;;;;;14.51;91.12;102353.88;4994127;28;20510;-74
2021/08/30 01:00:32;;;;;;;12.70;7.57;;;;;;;14.52;91.65;102352.91;4993572;28;20411;-75
2021/08/30 01:02:58;;;;;;;13.82;7.15;;;;;;;14.50;91.61;102360.22;4994011;28;20034;-74
2021/08/30 01:05:23;;;;;;;10.45;7.43;;;;;;;14.47;92.09;102361.31;5008506;28;20117;-75
2021/08/30 01:08:11;;;;;;;12.98;7.60;;;;;;;14.46;92.17;102362.28;4993952;28;20042;-74
2021/08/30 01:10:51;;;;;;;14.40;7.50;;;;;;;14.43;92.28;102358.03;4993247;28;20043;-74
2021/08/30 01:13:45;;;;;;;13.65;7.85;;;;;;;14.42;92.20;102359.03;4994105;28;20030;-74
2021/08/30 01:16:13;;;;;;;15.05;7.32;;;;;;;14.41;92.10;102360.00;4993788;28;20138;-73
2021/08/30 01:18:40;;;;;;;15.00;8.75;;;;;;;14.42;92.12;102366.19;4993183;28;20030;-74
2021/08/30 01:21:29;;;;;;;21.35;9.13;;;;;;;14.43;92.12;102363.38;4993680;28;20041;-74
2021/08/30 01:23:58;;;;;;;22.73;8.95;;;;;;;14.43;92.06;102358.03;4993188;28;20046;-74
2021/08/30 01:26:32;;;;;;;23.15;9.55;;;;;;;14.46;92.04;102363.16;4993247;28;20455;-74
2021/08/30 01:29:16;;;;;;;23.23;10.38;;;;;;;14.49;91.88;102363.88;4993326;28;20085;-73
2021/08/30 01:32:06;;;;;;;28.20;10.43;;;;;;;14.51;92.29;102372.63;4992219;28;20026;-74
2021/08/30 01:34:34;;;;;;;20.98;10.93;;;;;;;14.52;91.99;102363.63;4992398;28;20026;-74
2021/08/30 01:37:01;;;;;;;22.35;11.93;;;;;;;14.52;91.94;102367.13;4993367;28;20030;-73
2021/08/30 01:39:30;;;;;;;20.90;11.57;;;;;;;14.52;92.10;102371.66;4992547;28;20054;-74
2021/08/30 01:41:58;;;;;;;24.58;11.63;;;;;;;14.52;92.30;102374.34;4993531;28;20034;-74
2021/08/30 01:44:24;;;;;;;26.60;12.18;;;;;;;14.52;92.47;102371.66;4993050;28;20494;-73
2021/08/30 01:46:51;;;;;;;21.42;12.60;;;;;;;14.51;92.61;102375.31;4992842;28;20046;-73
2021/08/30 01:49:19;;;;;;;27.35;13.50;;;;;;;14.50;92.91;102363.75;4993282;28;20364;-74
2021/08/30 01:51:47;;;;;;;23.30;12.75;;;;;;;14.50;92.59;102366.44;4992578;28;20538;-74
2021/08/30 01:54:13;;;;;;;32.70;13.82;;;;;;;14.51;92.81;102364.59;4992827;28;20042;-74
2021/08/30 01:56:42;;;;;;;22.40;13.00;;;;;;;14.51;92.56;102365.47;4992772;28;20030;-74
2021/08/30 02:01:52;;;;;;;30.98;13.32;;;;;;;14.52;92.61;102366.28;4992411;28;20133;-74
2021/08/30 02:04:17;;;;;;;32.00;13.77;;;;;;;14.51;92.46;102364.59;4991909;28;20121;-74
2021/08/30 02:06:42;;;;;;;23.67;12.85;;;;;;;14.49;92.59;102364.72;4995763;28;20034;-74
2021/08/30 02:09:08;;;;;;;22.85;13.70;;;;;;;14.49;92.71;102367.41;4997343;28;20034;-73
2021/08/30 02:11:35;;;;;;;29.30;13.98;;;;;;;14.49;92.80;102364.72;4996537;28;20124;-73
2021/08/30 02:14:02;;;;;;;30.15;13.90;;;;;;;14.48;92.83;102368.41;4997108;28;20047;-73
2021/08/30 02:16:28;;;;;;;27.63;14.07;;;;;;;14.48;92.71;102371.06;4996849;28;20537;-73
2021/08/30 02:19:15;;;;;;;22.95;12.68;;;;;;;14.48;92.44;102368.41;4996344;28;20029;-73
2021/08/30 02:21:44;;;;;;;27.27;13.45;;;;;;;14.49;92.67;102374.59;4996421;28;20038;-73
2021/08/30 02:24:09;;;;;;;31.42;15.18;;;;;;;14.48;93.07;102372.88;4996986;28;20039;-73
2021/08/30 02:26:50;;;;;;;28.20;15.27;;;;;;;14.46;93.03;102375.69;4996328;28;20034;-73
2021/08/30 02:29:20;;;;;;;28.42;14.75;;;;;;;14.43;92.93;102368.75;4996681;28;20109;-73
2021/08/30 02:31:48;;;;;;;26.83;15.73;;;;;;;14.45;93.07;102371.28;4996246;28;20241;-73
2021/08/30 02:34:19;;;;;;;30.58;16.80;;;;;;;14.43;93.11;102365.22;4997258;28;20100;-73
2021/08/30 02:36:45;;;;;;;31.65;16.45;;;;;;;14.42;93.23;102366.19;4996234;28;20030;-73
2021/08/30 02:39:11;;;;;;;31.73;17.02;;;;;;;14.42;92.94;102363.53;4996979;28;20114;-73
2021/08/30 02:41:37;;;;;;;31.70;17.25;;;;;;;14.41;92.69;102360.00;4996175;28;20080;-73
2021/08/30 02:44:04;;;;;;;32.97;15.77;;;;;;;14.41;92.90;102365.34;4996595;28;20038;-73
2021/08/30 02:46:30;;;;;;;33.63;16.77;;;;;;;14.42;93.26;102363.53;4995423;28;20092;-73
2021/08/30 02:48:57;;;;;;;34.10;16.83;;;;;;;14.41;93.22;102357.31;4995861;28;20382;-73
2021/08/30 02:51:25;;;;;;;33.05;17.33;;;;;;;14.40;92.91;102350.25;4996425;28;20038;-73
2021/08/30 02:53:51;;;;;;;26.45;16.42;;;;;;;14.40;92.75;102347.59;4995513;28;20057;-73
2021/08/30 02:56:18;;;;;;;28.20;15.38;;;;;;;14.41;92.60;102351.97;4996094;28;20443;-73
2021/08/30 02:58:44;;;;;;;26.98;14.98;;;;;;;14.40;92.54;102347.59;4994385;28;20471;-73
2021/08/30 03:01:10;;;;;;;26.30;13.75;;;;;;;14.42;92.27;102345.66;4995975;28;20093;-73
2021/08/30 03:03:37;;;;;;;28.13;13.68;;;;;;;14.42;91.38;102342.97;4995925;28;20034;-74
2021/08/30 03:06:02;;;;;;;30.35;14.07;;;;;;;14.46;91.70;102348.91;4996246;28;20030;-73
2021/08/30 03:08:28;;;;;;;25.15;12.88;;;;;;;14.46;91.48;102343.56;4995832;28;20072;-73
2021/08/30 03:10:54;;;;;;;27.45;13.20;;;;;;;14.46;91.50;102348.91;4995174;28;20035;-73
2021/08/30 03:13:20;;;;;;;22.83;13.00;;;;;;;14.46;91.70;102348.91;4996030;28;20042;-73
2021/08/30 03:15:49;;;;;;;23.80;12.77;;;;;;;14.45;91.70;102347.19;4995125;28;20100;-72
2021/08/30 03:18:16;;;;;;;23.55;12.93;;;;;;;14.45;91.78;102349.88;4995067;28;20113;-72
2021/08/30 03:20:44;;;;;;;27.20;12.38;;;;;;;14.43;91.97;102346.50;4995283;28;20057;-73
2021/08/30 03:23:11;;;;;;;24.95;13.60;;;;;;;14.41;91.52;102346.63;4994360;28;20450;-72
2021/08/30 03:25:37;;;;;;;28.50;13.43;;;;;;;14.42;91.47;102344.78;4995841;28;20034;-72
2021/08/30 03:28:09;;;;;;;27.08;13.35;;;;;;;14.41;91.76;102349.28;4995219;28;20045;-72
2021/08/30 03:30:34;;;;;;;;;;;;;;;14.41;91.77;102340.41;4995909;28;20571;-72
2021/08/30 03:33:01;;;;;;;25.77;13.00;;;;;;;14.40;90.79;102330.69;4995079;28;20029;-72
2021/08/30 03:35:29;;;;;;;29.02;13.13;;;;;;;14.35;89.78;102312.31;5010746;28;20038;-72
2021/08/30 03:37:56;;;;;;;24.88;14.38;;;;;;;14.27;90.28;102314.78;4994924;28;20031;-72
2021/08/30 03:40:23;;;;;;;28.40;14.25;;;;;;;14.16;90.51;102306.81;4995534;28;20034;-72
2021/08/30 03:42:49;;;;;;;23.80;13.07;;;;;;;14.05;90.86;102313.03;4994952;28;20038;-72
2021/08/30 03:45:15;;;;;;;24.38;13.20;;;;;;;13.97;90.81;102316.31;4995487;28;20062;-72
2021/08/30 03:47:41;;;;;;;26.92;14.02;;;;;;;13.89;91.42;102313.44;4994220;28;20442;-72
2021/08/30 03:50:09;;;;;;;25.80;13.70;;;;;;;13.83;91.60;102316.63;4995093;28;20446;-72
2021/08/30 03:52:37;;;;;;;32.25;13.43;;;;;;;13.77;91.83;102325.16;4995316;28;20045;-73
2021/08/30 03:55:03;;;;;;;32.95;13.88;;;;;;;13.72;91.72;102317.50;4994680;28;20041;-72
2021/08/30 03:57:29;;;;;;;28.70;13.52;;;;;;;13.69;92.29;102315.03;4995109;28;20481;-72
2021/08/30 03:59:58;;;;;;;22.15;13.18;;;;;;;13.67;92.35;102323.19;4994298;28;20077;-73
2021/08/30 04:02:26;;;;;;;31.70;14.45;;;;;;;13.64;92.16;102327.94;4994967;28;20395;-72
2021/08/30 04:04:52;;;;;;;31.80;15.20;;;;;;;13.59;92.33;102320.28;4994539;28;20451;-73
2021/08/30 04:07:19;;;;;;;29.73;14.15;;;;;;;13.59;92.27;102325.63;4995317;28;20041;-72
2021/08/30 04:09:45;;;;;;;32.58;14.52;;;;;;;13.57;92.94;102327.59;4994326;28;20045;-73
2021/08/30 04:12:11;;;;;;;34.30;15.65;;;;;;;13.52;92.54;102319.91;4994896;28;20034;-72
2021/08/30 04:14:38;;;;;;;28.08;14.40;;;;;;;13.48;92.67;102322.94;4994656;28;20387;-72
2021/08/30 04:17:03;;;;;;;26.67;13.23;;;;;;;13.43;93.03;102319.81;4994017;28;20074;-73
2021/08/30 04:19:29;;;;;;;28.25;14.50;;;;;;;13.40;93.43;102327.13;4994871;28;20455;-72
2021/08/30 04:21:54;;;;;;;33.03;14.00;;;;;;;13.39;93.25;102324.53;4992906;28;20460;-73
2021/08/30 04:24:19;;;;;;;28.77;14.32;;;;;;;13.35;93.30;102321.25;4994383;28;20117;-72
2021/08/30 04:26:45;;;;;;;29.30;13.88;;;;;;;13.34;93.31;102319.56;4994457;28;20031;-73
2021/08/30 04:29:10;;;;;;;24.85;13.35;;;;;;;13.35;93.69;102321.25;4994040;28;20125;-73
2021/08/30 04:31:36;;;;;;;31.10;14.13;;;;;;;13.35;93.56;102317.75;4994335;28;20113;-72
2021/08/30 04:34:01;;;;;;;28.20;13.63;;;;;;;13.34;93.57;102316.88;4994024;28;20069;-72
2021/08/30 04:36:27;;;;;;;28.23;13.70;;;;;;;13.35;93.76;102313.25;4994329;28;20046;-72
2021/08/30 04:38:52;;;;;;;27.58;13.63;;;;;;;13.34;93.58;102311.53;5009049;28;20475;-73
2021/08/30 04:41:18;;;;;;;27.60;13.38;;;;;;;13.33;93.69;102323.19;4994424;28;20038;-72
2021/08/30 04:43:45;;;;;;;37.90;14.85;;;;;;;13.33;94.34;102315.16;5009450;28;20431;-72
2021/08/30 04:46:10;;;;;;;24.40;14.05;;;;;;;13.34;93.95;102322.22;4993672;28;20392;-72
2021/08/30 04:48:35;;;;;;;28.17;14.32;;;;;;;13.37;94.35;102319.31;4994384;28;20038;-73
2021/08/30 04:51:01;;;;;;;23.92;14.02;;;;;;;13.40;94.57;102316.41;4993299;28;20382;-73
2021/08/30 04:53:27;;;;;;;27.90;14.80;;;;;;;13.46;94.38;102315.06;4994275;28;20034;-72
2021/08/30 04:55:52;;;;;;;25.98;14.70;;;;;;;13.54;94.14;102317.13;4993483;28;20066;-73
2021/08/30 04:58:17;;;;;;;26.83;14.55;;;;;;;13.60;93.99;102326.47;4994081;28;20041;-73
2021/08/30 05:00:43;;;;;;;21.45;13.13;;;;;;;13.62;93.66;102328.06;5008950;28;20065;-73
2021/08/30 05:03:08;;;;;;;25.55;14.32;;;;;;;13.65;93.98;102324.31;4993671;28;20034;-73
2021/08/30 05:05:33;;;;;;;27.58;13.88;;;;;;;13.68;93.87;102329.41;4994086;28;20058;-73
2021/08/30 05:07:59;;;;;;;25.58;13.65;;;;;;;13.72;93.58;102330.88;4991959;28;20088;-72
2021/08/30 05:10:24;;;;;;;28.67;15.43;;;;;;;13.74;93.51;102334.25;4993633;28;20034;-72
2021/08/30 05:12:50;;;;;;;26.38;14.85;;;;;;;13.79;93.66;102339.22;4993760;28;20026;-72
2021/08/30 05:15:15;;;;;;;26.13;14.10;;;;;;;13.86;93.35;102340.44;4993281;28;20034;-73
2021/08/30 05:17:40;;;;;;;25.67;13.32;;;;;;;13.91;93.65;102343.59;4993505;28;20117;-72
2021/08/30 05:20:06;;;;;;;23.15;13.15;;;;;;;13.96;93.29;102343.22;4993138;28;20415;-73
2021/08/30 05:22:31;;;;;;;23.27;14.05;;;;;;;13.98;93.04;102352.81;4993625;28;20034;-73
2021/08/30 05:24:57;;;;;;;23.55;13.77;;;;;;;14.04;93.72;102355.00;4993056;28;20034;-73
2021/08/30 05:27:22;;;;;;;29.33;13.70;;;;;;;14.09;93.76;102362.63;4993646;28;20037;-73
2021/08/30 05:29:49;;;;;;;23.88;13.35;;;;;;;14.16;93.68;102371.03;4993677;28;20038;-72
2021/08/30 05:32:14;;;;;;;26.13;13.63;;;;;;;14.21;93.63;102368.81;4992771;28;20307;-73
2021/08/30 05:34:40;;;;;;;26.13;13.82;;;;;;;14.26;93.29;102366.63;4993458;28;20113;-74
2021/08/30 05:37:05;;;;;;;27.85;13.98;;;;;;;14.30;93.39;102368.06;4992898;28;20074;-72
2021/08/30 05:39:30;;;;;;;22.70;14.32;;;;;;;14.38;93.42;102362.94;4993665;28;20121;-75
2021/08/30 05:41:56;;;;;;;30.20;14.68;;;;;;;14.48;93.57;102365.72;4992331;28;20073;-73
2021/08/30 05:44:21;;;;;;;28.52;14.40;;;;;;;14.56;93.28;102365.06;4993280;28;20042;-74
2021/08/30 05:46:46;;;;;;;22.65;13.07;;;;;;;14.66;92.93;102367.84;4993471;28;20041;-73
2021/08/30 05:49:12;;;;;;;19.58;12.95;;;;;;;14.75;92.76;102373.28;4992544;28;20034;-72
2021/08/30 05:51:37;;;;;;;26.55;12.80;;;;;;;14.84;92.47;102366.31;4992930;28;20113;-74
2021/08/30 05:54:03;;;;;;;29.50;12.90;;;;;;;14.93;92.05;102376.25;4992845;28;20157;-74
2021/08/30 05:56:29;;;;;;;25.98;12.75;;;;;;;15.02;92.15;102373.75;4993229;28;20034;-74
2021/08/30 05:58:54;;;;;;;27.85;13.00;;;;;;;15.08;91.72;102376.75;4992808;28;20065;-74
2021/08/30 06:01:19;;;;;;;28.02;13.75;;;;;;;15.16;91.22;102379.63;4992785;28;20383;-72
2021/08/30 06:03:45;;;;;;;23.80;12.32;;;;;;;15.22;91.10;102380.94;4992744;28;20030;-72
2021/08/30 06:06:10;;;;;;;28.80;12.90;;;;;;;15.27;90.77;102377.84;4992175;28;20042;-75
2021/08/30 06:08:36;;;;;;;25.35;12.30;;;;;;;15.29;90.99;102378.59;4992879;28;20395;-74
2021/08/30 06:11:01;;;;;;;28.23;12.43;;;;;;;15.32;90.33;102383.69;4992401;28;20394;-75
2021/08/30 06:13:27;;;;;;;20.25;11.65;;;;;;;15.37;90.35;102380.59;4993259;28;20033;-74
2021/08/30 06:15:52;;;;;;;22.95;12.05;;;;;;;15.44;90.44;102381.78;4993107;28;20053;-74
2021/08/30 06:18:18;;;;;;;24.25;11.40;;;;;;;15.47;89.86;102384.19;4992173;28;20026;-74
2021/08/30 06:20:44;;;;;;;24.80;11.38;;;;;;;15.50;89.70;102389.28;4993129;28;20057;-74
2021/08/30 06:23:09;;;;;;;17.35;10.57;;;;;;;15.54;89.09;102387.16;4992503;28;20117;-74
2021/08/30 06:25:35;;;;;;;21.15;11.88;;;;;;;15.55;88.96;102388.88;4992762;28;20386;-74
2021/08/30 06:28:00;;;;;;;20.23;11.07;;;;;;;15.55;88.88;102381.66;4993054;28;20034;-74
2021/08/30 06:30:26;;;;;;;23.77;10.98;;;;;;;15.56;88.41;102383.38;4992984;28;20527;-74
2021/08/30 06:32:51;;;;;;;18.92;10.85;;;;;;;15.58;88.92;102381.41;4992873;28;20026;-73
2021/08/30 06:35:17;;;;;;;25.92;11.85;;;;;;;15.59;88.68;102387.63;4992111;28;20034;-74
2021/08/30 06:37:43;;;;;;;22.13;11.38;;;;;;;15.60;88.77;102384.81;4993177;28;20042;-74
2021/08/30 06:40:10;;;;;;;22.63;10.95;;;;;;;15.63;88.43;102387.22;4992352;28;20030;-74
2021/08/30 06:42:35;;;;;;;26.80;10.68;;;;;;;15.66;88.30;102389.63;4993212;28;20054;-74
2021/08/30 06:45:03;;;;;;;20.00;11.27;;;;;;;15.68;87.77;102390.34;4993018;28;20483;-73
2021/08/30 06:47:28;;;;;;;20.42;10.57;;;;;;;15.68;88.17;102384.97;4992841;28;20034;-73
2021/08/30 06:49:54;;;;;;;22.90;11.05;;;;;;;15.68;88.70;102389.50;4993091;28;20495;-73
2021/08/30 06:52:19;;;;;;;19.60;10.65;;;;;;;15.67;88.40;102390.47;4995688;28;20069;-73
2021/08/30 06:54:44;;;;;;;22.88;11.23;;;;;;;15.68;88.78;102392.19;4997040;28;20375;-73
2021/08/30 06:57:10;;;;;;;18.55;11.45;;;;;;;15.69;88.67;102392.03;4996232;28;20072;-74
2021/08/30 06:59:35;;;;;;;23.40;11.85;;;;;;;15.69;88.53;102386.69;4996744;28;20053;-74
2021/08/30 07:02:01;;;;;;;27.80;11.57;;;;;;;15.66;88.63;102403.06;4996421;28;20549;-74
2021/08/30 07:04:26;;;;;;;31.73;12.77;;;;;;;15.65;88.58;102395.97;4995583;28;20022;-74
2021/08/30 07:06:51;;;;;;;25.67;11.65;;;;;;;15.64;89.19;102390.75;4995990;28;20030;-73
2021/08/30 07:09:17;;;;;;;24.33;11.80;;;;;;;15.67;89.06;102394.03;4995701;28;20092;-74
2021/08/30 07:11:42;;;;;;;19.38;12.88;;;;;;;15.74;89.01;102390.81;4996181;28;20379;-74
2021/08/30 07:14:08;;;;;;;26.77;12.73;;;;;;;15.80;88.94;102392.97;4995631;28;20386;-74
2021/08/30 07:16:33;;;;;;;28.98;12.35;;;;;;;15.80;87.81;102399.19;4995920;28;20116;-74
2021/08/30 07:19:00;;;;;;;26.33;11.90;;;;;;;15.81;88.39;102395.50;4995988;28;20177;-74
2021/08/30 07:21:25;;;;;;;23.98;12.23;;;;;;;15.79;88.73;102389.41;4995321;28;20034;-74
2021/08/30 07:23:51;;;;;;;24.65;12.20;;;;;;;15.80;88.65;102396.50;4996062;28;20431;-74
2021/08/30 07:26:16;;;;;;;27.17;11.43;;;;;;;15.85;88.21;102394.28;4995213;28;20034;-74
2021/08/30 07:28:41;;;;;;;30.77;11.70;;;;;;;15.94;88.37;102405.16;4994521;28;20038;-74
2021/08/30 07:31:07;;;;;;;27.20;11.57;;;;;;;16.05;88.03;102407.75;4995672;28;20387;-74
2021/08/30 07:33:33;;;;;;;24.58;12.80;;;;;;;16.15;87.75;102407.75;4994812;28;20174;-74
2021/08/30 07:35:58;;;;;;;22.67;11.93;;;;;;;16.22;87.54;102409.75;4995689;28;20026;-74
2021/08/30 07:38:23;;;;;;;22.90;12.48;;;;;;;16.31;87.14;102409.91;4995079;28;20064;-74
2021/08/30 07:40:49;;;;;;;26.13;11.85;;;;;;;16.38;87.11;102408.38;4995531;28;20030;-74
2021/08/30 07:43:14;;;;;;;20.73;12.00;;;;;;;16.43;86.15;102408.78;4994782;28;20035;-74
2021/08/30 07:45:40;;;;;;;22.83;12.43;;;;;;;16.48;86.16;102411.06;4995557;28;20122;-74
2021/08/30 07:48:05;;;;;;;25.95;13.27;;;;;;;16.49;85.39;102410.91;4995288;28;20374;-73
2021/08/30 07:50:31;;;;;;;22.27;12.98;;;;;;;16.50;85.85;102404.56;4994873;28;20273;-74
2021/08/30 07:52:56;;;;;;;27.38;14.27;;;;;;;16.52;84.86;102407.13;4994998;28;20049;-74
2021/08/30 07:55:22;;;;;;;26.02;14.90;;;;;;;16.52;84.44;102410.63;4994629;28;20042;-74
2021/08/30 07:57:47;;;;;;;22.88;14.85;;;;;;;16.55;84.16;102417.56;4995418;28;20045;-74
2021/08/30 08:00:13;;;;;;;29.38;14.85;;;;;;;16.58;84.94;102417.28;4994749;28;20058;-75
2021/08/30 08:02:40;;;;;;;24.50;15.20;;;;;;;16.56;84.36;102428.19;4995050;28;20038;-74
2021/08/30 08:05:06;;;;;;;31.02;15.30;;;;;;;16.53;83.89;102425.78;4994880;28;20026;-74
2021/08/30 08:07:31;;;;;;;30.60;16.02;;;;;;;16.51;84.91;102433.13;4994365;28;20034;-74
2021/08/30 08:09:57;;;;;;;30.77;16.33;;;;;;;16.54;85.42;102432.00;4995403;28;20042;-74
2021/08/30 08:12:22;;;;;;;24.35;14.23;;;;;;;16.62;84.51;102431.31;4994318;28;20386;-74
2021/08/30 08:14:48;;;;;;;20.08;14.15;;;;;;;16.73;84.44;102433.84;4994721;28;20121;-74
2021/08/30 08:17:13;;;;;;;26.30;13.75;;;;;;;16.86;84.21;102431.72;4993799;28;20458;-73
2021/08/30 08:19:39;;;;;;;22.08;12.55;;;;;;;16.97;83.22;102427.22;4993991;28;20037;-74
2021/08/30 08:22:04;;;;;;;24.38;11.30;;;;;;;17.13;82.63;102432.03;4994493;28;20041;-74
2021/08/30 08:24:30;;;;;;;23.20;10.35;;;;;;;17.27;81.90;102424.38;4994015;28;20494;-74
2021/08/30 08:26:56;;;;;;;20.25;10.38;;;;;;;17.36;80.27;102422.66;4994745;28;20031;-74
2021/08/30 08:29:22;;;;;;;17.35;8.90;;;;;;;17.43;80.77;102425.59;4994199;28;20125;-74
2021/08/30 08:31:48;;;;;;;24.98;9.85;;;;;;;17.43;81.13;102425.59;4994485;28;20026;-74
2021/08/30 08:34:14;;;;;;;22.35;9.45;;;;;;;17.43;80.41;102429.13;4994264;28;20042;-73
2021/08/30 08:36:40;;;;;;;28.88;9.77;;;;;;;17.47;80.67;102431.56;4994191;28;20113;-73
2021/08/30 08:39:06;;;;;;;23.63;9.93;;;;;;;17.51;81.24;102432.94;4994018;28;20027;-74
2021/08/30 08:41:34;;;;;;;21.73;9.02;;;;;;;17.52;81.12;102432.78;4993611;28;20042;-74
2021/08/30 08:44:00;;;;;;;23.73;9.13;;;;;;;17.54;81.16;102425.44;4994491;28;20122;-75
2021/08/30 08:46:27;;;;;;;24.85;8.82;;;;;;;17.53;81.15;102428.28;4994048;28;20061;-73
2021/08/30 08:48:52;;;;;;;22.90;8.90;;;;;;;17.58;80.59;102432.19;4994316;28;20427;-74
2021/08/30 08:51:18;;;;;;;25.73;8.38;;;;;;;17.68;81.41;102420.56;5008939;28;20157;-74
2021/08/30 08:53:44;;;;;;;23.08;9.02;;;;;;;17.77;81.16;102428.59;4993393;28;20049;-74
2021/08/30 08:56:14;;;;;;;29.02;9.32;;;;;;;17.79;80.60;102417.69;4994072;28;20093;-74
2021/08/30 08:58:40;;;;;;;23.88;9.35;;;;;;;17.79;80.93;102418.53;4993299;28;20238;-74
2021/08/30 09:01:11;;;;;;;26.48;9.23;;;;;;;17.76;80.47;102428.75;4994195;28;20034;-74
2021/08/30 09:03:46;;;;;;;21.48;8.55;;;;;;;17.80;81.05;102424.75;4993392;28;20041;-74
2021/08/30 09:06:12;;;;;;;31.20;9.93;;;;;;;17.82;80.69;102427.31;4993968;28;20128;-74
2021/08/30 09:08:43;;;;;;;26.90;9.57;;;;;;;17.90;80.33;102420.22;4991935;28;20460;-73
2021/08/30 09:11:20;;;;;;;27.10;9.25;;;;;;;18.12;80.98;102423.50;4993872;28;20034;-74
2021/08/30 09:13:50;;;;;;;26.13;9.68;;;;;;;18.35;79.18;102415.84;4993319;28;20038;-73
2021/08/30 09:16:24;;;;;;;21.90;9.25;;;;;;;18.54;77.73;102424.78;4992850;28;20490;-73
2021/08/30 09:18:50;;;;;;;27.27;9.23;;;;;;;18.66;76.28;102419.03;4993812;28;20475;-73
2021/08/30 09:21:17;;;;;;;20.70;9.48;;;;;;;18.74;76.92;102420.09;4993735;28;20068;-73
2021/08/30 09:23:44;;;;;;;18.73;9.25;;;;;;;18.78;76.27;102421.47;4992743;28;20376;-74
2021/08/30 09:26:21;;;;;;;20.05;9.45;;;;;;;18.77;75.54;102425.19;4992516;28;20118;-74
2021/08/30 09:28:57;;;;;;;19.20;8.70;;;;;;;18.76;77.04;102423.47;4992957;28;20027;-74
2021/08/30 09:31:23;;;;;;;21.30;8.82;;;;;;;18.74;76.33;102422.78;4993560;28;20030;-73
2021/08/30 09:33:50;;;;;;;19.35;8.60;;;;;;;18.78;76.55;102434.94;4993182;28;20039;-73
2021/08/30 09:36:17;;;;;;;22.80;8.90;;;;;;;18.86;75.96;102426.97;4993489;28;20034;-73
2021/08/30 09:38:43;;;;;;;21.50;8.40;;;;;;;18.98;76.07;102427.59;4992781;28;20045;-73
2021/08/30 09:41:10;;;;;;;15.45;7.80;;;;;;;19.20;74.93;102427.06;4993453;28;20109;-73
2021/08/30 09:43:37;;;;;;;15.98;7.60;;;;;;;19.37;73.37;102429.88;4992755;28;20026;-74
2021/08/30 09:46:04;;;;;;;21.80;8.82;;;;;;;19.36;73.10;102426.34;4993367;28;20034;-73
2021/08/30 09:48:31;;;;;;;20.80;8.77;;;;;;;19.40;73.17;102416.06;4992760;28;20124;-73
2021/08/30 09:51:04;;;;;;;22.05;9.07;;;;;;;19.55;72.22;102424.41;4993171;28;20121;-73
2021/08/30 09:53:32;;;;;;;17.35;8.50;;;;;;;19.66;71.52;102423.28;4992441;28;20038;-74
2021/08/30 09:55:58;;;;;;;19.75;8.70;;;;;;;19.77;71.17;102423.03;4993295;28;20084;-73
2021/08/30 09:58:27;;;;;;;18.52;8.27;;;;;;;19.84;71.90;102429.50;4993017;28;20026;-73
2021/08/30 10:00:55;;;;;;;19.13;8.85;;;;;;;19.71;72.00;102429.06;4992925;28;20521;-74
2021/08/30 10:03:21;;;;;;;17.35;8.40;;;;;;;19.49;72.05;102430.47;4992932;28;20534;-73
2021/08/30 10:05:47;;;;;;;19.88;9.40;;;;;;;19.22;73.58;102435.00;4991518;28;20482;-74
2021/08/30 10:08:16;;;;;;;21.60;9.05;;;;;;;18.95;73.72;102425.19;4993136;28;20076;-73
2021/08/30 10:10:42;;;;;;;16.23;8.65;;;;;;;18.85;75.35;102425.25;4992394;28;20038;-74
2021/08/30 10:13:10;;;;;;;18.65;8.30;;;;;;;18.91;74.86;102426.50;4992963;28;20033;-73
2021/08/30 10:15:36;;;;;;;18.20;8.05;;;;;;;19.09;73.96;102427.31;4992403;28;20038;-74
2021/08/30 10:18:02;;;;;;;26.23;9.23;;;;;;;19.20;73.84;102427.06;4993016;28;20038;-73
2021/08/30 10:20:33;;;;;;;17.52;8.30;;;;;;;19.28;74.13;102425.44;4992791;28;20037;-73
2021/08/30 10:23:05;;;;;;;19.42;7.57;;;;;;;19.34;72.95;102427.50;4993370;28;20042;-73
2021/08/30 10:25:35;;;;;;;21.75;7.80;;;;;;;19.29;72.93;102433.38;4992642;28;20034;-75
2021/08/30 10:28:03;;;;;;;25.45;8.00;;;;;;;19.11;72.71;102432.56;4996611;28;20117;-73
2021/08/30 10:30:31;;;;;;;22.10;7.43;;;;;;;18.97;73.73;102436.66;4996792;28;20101;-73
2021/08/30 10:33:00;;;;;;;20.23;7.57;;;;;;;18.85;74.20;102430.63;4996583;28;20125;-73
2021/08/30 10:35:31;;;;;;;20.75;7.40;;;;;;;18.75;74.62;102435.25;4996731;28;20054;-73
2021/08/30 10:38:06;;;;;;;19.08;6.90;;;;;;;18.60;75.70;102434.94;5011868;28;20119;-73
2021/08/30 10:40:37;;;;;;;29.55;8.40;;;;;;;18.77;75.64;102442.19;4996679;28;20060;-72
2021/08/30 10:43:08;;;;;;;;;;;;;;;19.10;75.50;102434.41;4997189;28;20080;-73
2021/08/30 10:45:57;;;;;;;21.40;8.00;;;;;;;19.47;73.55;102444.13;4996191;28;20377;-74
2021/08/30 10:48:40;;;;;;;22.95;7.47;;;;;;;19.70;72.35;102438.16;4996612;28;20273;-73
2021/08/30 10:51:25;;;;;;;17.40;7.55;;;;;;;19.85;70.41;102438.44;4996690;28;20038;-73
2021/08/30 10:53:58;;;;;;;25.10;7.40;;;;;;;19.96;70.64;102445.41;4995980;28;20038;-73
2021/08/30 10:56:29;;;;;;;18.67;7.85;;;;;;;19.97;69.50;102442.53;4996417;28;20022;-72
2021/08/30 10:58:58;;;;;;;25.77;8.35;;;;;;;19.95;69.50;102438.34;4994242;28;20050;-73
2021/08/30 11:01:23;;;;;;;18.00;7.18;;;;;;;20.05;69.61;102441.75;4996898;28;20088;-75
2021/08/30 11:03:56;;;;;;;22.30;7.80;;;;;;;20.05;70.32;102439.88;4996088;28;20038;-73
2021/08/30 11:06:24;;;;;;;28.33;8.85;;;;;;;20.15;70.29;102433.50;4996620;28;20066;-73
2021/08/30 11:08:50;;;;;;;18.77;7.50;;;;;;;20.22;69.85;102431.84;4996507;28;20034;-74
2021/08/30 11:11:20;;;;;;;17.35;7.15;;;;;;;20.28;68.95;102435.75;4997013;28;20430;-73
2021/08/30 11:14:04;;;;;;;24.52;8.20;;;;;;;20.21;69.05;102438.25;4994769;28;20030;-73
2021/08/30 11:16:33;;;;;;;21.10;8.68;;;;;;;20.02;69.07;102437.50;4996270;28;20109;-73